Time;durP1;ratioP1;P1;durP2;ratioP2;P2;SDS_P1;SDS_P2;PMS_P1;PMS_P2;Temp;Humidity;BMP_temperature;BMP_pressure;BME280_temperature;BME280_humidity;BME280_pressure;Samples;Min_cycle;Max_cycle;Signal;HPM_P1;HPM_P2
2022/04/16 00:00:06;;;;;;;0.60;0.60;;;-0.70;99.90;;;;;;4992519;28;20211;-84
2022/04/16 00:02:32;;;;;;;0.70;0.70;;;-0.70;99.90;;;;;;4993952;28;20261;-83
2022/04/16 00:04:58;;;;;;;0.70;0.70;;;-0.70;99.90;;;;;;4978519;28;20204;-84
2022/04/16 00:07:24;;;;;;;0.70;0.70;;;-0.80;99.90;;;;;;4974634;28;20192;-83
2022/04/16 00:09:49;;;;;;;0.70;0.70;;;-0.70;99.90;;;;;;4972298;28;20343;-83
2022/04/16 00:12:15;;;;;;;0.70;0.70;;;-0.70;99.90;;;;;;4974685;28;20220;-84
2022/04/16 00:14:41;;;;;;;0.73;0.73;;;-0.70;99.90;;;;;;4976864;28;20192;-84
2022/04/16 00:17:07;;;;;;;0.90;0.90;;;-0.80;99.90;;;;;;4960232;28;20201;-84
2022/04/16 00:19:32;;;;;;;0.70;0.70;;;-0.80;99.90;;;;;;4977445;28;20199;-84
2022/04/16 00:22:00;;;;;;;0.60;0.60;;;-0.90;99.90;;;;;;4959747;28;20654;-84
2022/04/16 00:24:28;;;;;;;0.80;0.80;;;-0.90;99.90;;;;;;4975987;28;20317;-84
2022/04/16 00:26:54;;;;;;;0.80;0.80;;;-0.90;99.90;;;;;;4978140;28;20667;-84
2022/04/16 00:29:19;;;;;;;0.70;0.70;;;-0.90;99.90;;;;;;4976739;28;20196;-83
2022/04/16 00:31:45;;;;;;;0.98;0.98;;;-0.90;99.90;;;;;;4976898;28;20211;-84
2022/04/16 00:34:14;;;;;;;0.80;0.80;;;-0.90;99.90;;;;;;4977887;28;20263;-83
2022/04/16 00:36:41;;;;;;;0.70;0.70;;;-0.80;99.90;;;;;;4976572;28;20592;-83
2022/04/16 00:39:07;;;;;;;0.60;0.60;;;-0.90;99.90;;;;;;4977995;28;20193;-83
2022/04/16 00:41:33;;;;;;;0.80;0.80;;;-0.90;99.90;;;;;;4976428;28;20215;-84
2022/04/16 00:43:59;;;;;;;0.70;0.70;;;-0.90;99.90;;;;;;4959779;28;20524;-83
2022/04/16 00:46:24;;;;;;;0.70;0.70;;;-0.90;99.90;;;;;;4960455;28;20204;-83
2022/04/16 00:48:50;;;;;;;0.73;0.73;;;-0.90;99.90;;;;;;4977931;28;20565;-83
2022/04/16 00:51:16;;;;;;;0.70;0.70;;;-0.90;99.90;;;;;;4960741;28;20196;-84
2022/04/16 00:53:42;;;;;;;0.70;0.70;;;-0.90;99.90;;;;;;4960190;28;20566;-83
2022/04/16 00:56:10;;;;;;;0.80;0.80;;;-0.90;99.90;;;;;;4977590;28;20656;-83
2022/04/16 00:58:42;;;;;;;0.70;0.70;;;-0.90;99.90;;;;;;4976385;28;20259;-83
2022/04/16 01:01:09;;;;;;;0.60;0.60;;;-1.00;99.90;;;;;;4977432;28;20239;-80
2022/04/16 01:03:35;;;;;;;0.70;0.70;;;-1.00;99.90;;;;;;4959928;28;20203;-79
2022/04/16 01:06:01;;;;;;;1.27;1.23;;;-1.00;99.90;;;;;;4960148;28;20197;-79
2022/04/16 01:08:26;;;;;;;0.68;0.68;;;-1.10;99.90;;;;;;4960106;28;20200;-79
2022/04/16 01:10:52;;;;;;;0.63;0.63;;;-1.10;99.90;;;;;;4960102;28;20207;-78
2022/04/16 01:13:18;;;;;;;0.70;0.70;;;-1.10;99.90;;;;;;4959141;28;20234;-79
2022/04/16 01:15:44;;;;;;;0.80;0.80;;;-1.20;99.90;;;;;;4959030;28;20207;-79
2022/04/16 01:18:12;;;;;;;0.70;0.70;;;-1.20;99.90;;;;;;4976477;28;20192;-79
2022/04/16 01:20:41;;;;;;;0.70;0.70;;;-1.20;99.90;;;;;;4959231;28;20598;-79
2022/04/16 01:23:07;;;;;;;0.70;0.70;;;-1.20;99.90;;;;;;4955584;29;20205;-78
2022/04/16 01:25:35;;;;;;;0.73;0.73;;;-1.20;99.90;;;;;;4956044;28;20567;-78
2022/04/16 01:28:01;;;;;;;0.70;0.70;;;-1.20;99.90;;;;;;4956466;29;20192;-79
2022/04/16 01:30:28;;;;;;;0.70;0.70;;;-1.30;99.90;;;;;;4959461;28;20201;-78
2022/04/16 01:32:54;;;;;;;0.70;0.70;;;-1.30;99.90;;;;;;4975719;28;20200;-79
2022/04/16 01:35:20;;;;;;;0.80;0.80;;;-1.40;99.90;;;;;;4975782;28;20295;-79
2022/04/16 01:37:46;;;;;;;0.63;0.63;;;-1.40;99.90;;;;;;4976850;28;20228;-78
2022/04/16 01:40:14;;;;;;;0.60;0.60;;;-1.40;99.90;;;;;;4975916;28;20196;-78
2022/04/16 01:42:43;;;;;;;0.80;0.80;;;-1.40;99.90;;;;;;4969221;28;20306;-78
2022/04/16 01:45:10;;;;;;;0.80;0.80;;;-1.40;99.90;;;;;;4994164;28;20203;-78
2022/04/16 01:47:38;;;;;;;0.60;0.60;;;-1.40;99.90;;;;;;4990811;28;20192;-77
2022/04/16 01:50:06;;;;;;;0.60;0.60;;;-1.40;99.90;;;;;;4977700;28;20207;-78
2022/04/16 01:52:35;;;;;;;0.70;0.70;;;-1.40;99.90;;;;;;4991908;28;20206;-78
2022/04/16 01:55:01;;;;;;;0.80;0.80;;;-1.40;99.90;;;;;;4975840;28;20200;-78
2022/04/16 01:57:27;;;;;;;0.70;0.70;;;-1.50;99.90;;;;;;4963456;28;20209;-78
2022/04/16 01:59:54;;;;;;;0.70;0.70;;;-1.50;99.90;;;;;;4974325;28;20561;-79
2022/04/16 02:02:20;;;;;;;0.60;0.60;;;-1.50;99.90;;;;;;4960589;28;20213;-79
2022/04/16 02:04:46;;;;;;;0.70;0.70;;;-1.50;99.90;;;;;;4974447;28;20672;-78
2022/04/16 02:07:13;;;;;;;0.60;0.60;;;-1.50;99.90;;;;;;4958193;28;20196;-79
2022/04/16 02:09:39;;;;;;;0.70;0.70;;;-1.50;99.90;;;;;;4973958;28;20209;-78
2022/04/16 02:12:06;;;;;;;0.70;0.70;;;-1.50;99.90;;;;;;4975186;28;20695;-78
2022/04/16 02:14:32;;;;;;;0.70;0.70;;;-1.50;99.90;;;;;;4975064;28;20196;-78
2022/04/16 02:16:59;;;;;;;0.70;0.70;;;-1.50;99.90;;;;;;4975284;28;20693;-78
2022/04/16 02:19:25;;;;;;;0.70;0.70;;;-1.50;99.90;;;;;;4973858;28;20199;-79
2022/04/16 02:21:51;;;;;;;0.70;0.70;;;-1.50;99.90;;;;;;4973883;28;20223;-79
2022/04/16 02:24:17;;;;;;;0.73;0.73;;;-1.40;99.90;;;;;;4954277;29;20201;-78
2022/04/16 02:26:44;;;;;;;0.80;0.80;;;-1.50;99.90;;;;;;4964531;28;20283;-82
2022/04/16 02:29:10;;;;;;;0.70;0.70;;;-1.40;99.90;;;;;;4960651;28;20231;-82
2022/04/16 02:31:37;;;;;;;0.68;0.68;;;-1.50;99.90;;;;;;4960270;28;20570;-83
2022/04/16 02:34:05;;;;;;;0.70;0.70;;;-1.50;99.90;;;;;;4977861;28;20200;-83
2022/04/16 02:36:33;;;;;;;0.80;0.80;;;-1.50;99.90;;;;;;4959724;28;20200;-82
2022/04/16 02:38:59;;;;;;;0.70;0.70;;;-1.50;99.90;;;;;;4996715;28;20562;-82
2022/04/16 02:41:25;;;;;;;1.33;1.23;;;-1.60;99.90;;;;;;4995261;28;20246;-83
2022/04/16 02:43:54;;;;;;;0.80;0.80;;;-1.60;99.90;;;;;;4995555;28;20667;-83
2022/04/16 02:49:13;;;;;;;0.75;0.75;;;-1.70;99.90;;;;;;4991756;28;20210;-83
2022/04/16 02:51:39;;;;;;;0.70;0.70;;;-1.70;99.90;;;;;;4976303;28;20219;-83
2022/04/16 02:54:08;;;;;;;0.80;0.80;;;-1.70;99.90;;;;;;4977975;28;20251;-82
2022/04/16 02:56:33;;;;;;;0.80;0.80;;;-1.80;99.90;;;;;;4976363;28;20197;-82
2022/04/16 02:58:59;;;;;;;0.75;0.75;;;-1.80;99.90;;;;;;4959560;28;20286;-83
2022/04/16 03:01:24;;;;;;;0.80;0.80;;;-1.80;99.90;;;;;;4976020;28;20215;-82
2022/04/16 03:03:50;;;;;;;0.63;0.63;;;-1.80;99.90;;;;;;4966946;28;20200;-83
2022/04/16 03:06:16;;;;;;;0.80;0.80;;;-1.80;99.90;;;;;;4975316;28;20220;-83
2022/04/16 03:08:42;;;;;;;0.80;0.80;;;-1.80;99.90;;;;;;4974443;28;20207;-83
2022/04/16 03:11:07;;;;;;;0.73;0.73;;;-1.80;99.90;;;;;;4975031;28;20211;-83
2022/04/16 03:13:34;;;;;;;0.70;0.70;;;-1.80;99.90;;;;;;4971799;28;20611;-83
2022/04/16 03:18:45;;;;;;;0.80;0.80;;;-1.90;99.90;;;;;;4976686;28;20223;-82
2022/04/16 03:21:12;;;;;;;0.77;0.77;;;-1.90;99.90;;;;;;4974922;28;20678;-83
2022/04/16 03:23:38;;;;;;;0.70;0.70;;;-2.00;99.90;;;;;;4984074;28;20196;-83
2022/04/16 03:26:04;;;;;;;0.60;0.60;;;-2.00;99.90;;;;;;4994951;28;20291;-83
2022/04/16 03:28:31;;;;;;;0.60;0.60;;;-2.00;99.90;;;;;;4993960;28;20256;-83
2022/04/16 03:30:58;;;;;;;0.70;0.70;;;-2.10;99.90;;;;;;4980153;28;20223;-83
2022/04/16 03:33:24;;;;;;;0.60;0.60;;;-2.10;99.90;;;;;;4958547;28;20218;-82
2022/04/16 03:35:51;;;;;;;0.63;0.63;;;-2.10;99.90;;;;;;4976224;28;20279;-82
2022/04/16 03:38:17;;;;;;;0.77;0.77;;;-2.20;99.90;;;;;;4958747;28;20251;-83
2022/04/16 03:40:44;;;;;;;0.82;0.82;;;-2.20;99.90;;;;;;4958188;28;20664;-82
2022/04/16 03:43:10;;;;;;;0.70;0.70;;;-2.30;99.90;;;;;;4974524;28;20216;-83
2022/04/16 03:45:36;;;;;;;0.70;0.70;;;-2.40;99.90;;;;;;4975414;28;20204;-82
2022/04/16 03:48:05;;;;;;;0.70;0.70;;;-2.40;99.90;;;;;;4983962;28;20690;-83
2022/04/16 03:50:31;;;;;;;0.55;0.55;;;-2.40;99.90;;;;;;4981129;28;20226;-82
2022/04/16 03:52:58;;;;;;;0.80;0.80;;;-2.40;99.90;;;;;;4964848;28;20675;-82
2022/04/16 04:00:59;;;;;;;0.80;0.80;;;-2.40;99.90;;;;;;4982404;28;20673;-82
2022/04/16 04:03:25;;;;;;;0.80;0.80;;;-2.40;99.90;;;;;;4981837;28;20211;-82
2022/04/16 04:05:53;;;;;;;0.95;0.93;;;-2.40;99.90;;;;;;4964474;28;20644;-82
2022/04/16 04:08:23;;;;;;;0.80;0.80;;;-2.40;99.90;;;;;;4981931;28;20768;-82
2022/04/16 04:10:48;;;;;;;1.25;1.15;;;-2.40;99.90;;;;;;4982042;28;20196;-82
2022/04/16 04:13:16;;;;;;;0.80;0.80;;;-2.40;99.90;;;;;;4964726;28;20246;-82
2022/04/16 04:15:42;;;;;;;0.73;0.73;;;-2.30;99.90;;;;;;4964323;28;20203;-82
2022/04/16 04:18:07;;;;;;;0.70;0.70;;;-2.20;99.90;;;;;;4965340;28;20206;-83
2022/04/16 04:20:36;;;;;;;0.70;0.70;;;-2.20;99.90;;;;;;4964719;28;20334;-82
2022/04/16 04:23:03;;;;;;;0.70;0.70;;;-2.10;99.90;;;;;;4976021;28;20663;-82
2022/04/16 04:25:30;;;;;;;0.70;0.70;;;-2.10;99.90;;;;;;4980551;28;20196;-84
2022/04/16 04:27:56;;;;;;;0.70;0.70;;;-2.00;99.90;;;;;;4972049;28;20231;-83
2022/04/16 04:30:22;;;;;;;0.80;0.80;;;-2.00;99.90;;;;;;4981162;28;20199;-83
2022/04/16 04:32:48;;;;;;;0.75;0.75;;;-1.90;99.90;;;;;;4980071;28;20196;-83
2022/04/16 04:35:14;;;;;;;0.70;0.70;;;-1.80;99.90;;;;;;4980121;28;20207;-82
2022/04/16 04:37:40;;;;;;;0.80;0.80;;;-1.70;99.90;;;;;;4979880;28;20335;-82
2022/04/16 04:40:06;;;;;;;0.63;0.63;;;-1.60;99.90;;;;;;4981097;28;20287;-82
2022/04/16 04:42:34;;;;;;;0.90;0.90;;;-1.50;99.90;;;;;;4967798;28;20311;-82
2022/04/16 04:45:10;;;;;;;0.70;0.70;;;-1.40;99.90;;;;;;4963776;28;20709;-82
2022/04/16 04:47:36;;;;;;;0.60;0.60;;;-1.30;99.90;;;;;;4961248;29;20648;-83
2022/04/16 04:50:04;;;;;;;0.80;0.80;;;-1.20;99.90;;;;;;4964449;28;20207;-82
2022/04/16 04:52:30;;;;;;;0.80;0.80;;;-1.10;99.90;;;;;;4981694;28;20192;-82
2022/04/16 04:55:00;;;;;;;0.70;0.70;;;-1.00;99.90;;;;;;4964640;28;20247;-83
2022/04/16 04:57:27;;;;;;;2.40;1.17;;;-0.90;99.90;;;;;;4964545;28;20686;-82
2022/04/16 04:59:53;;;;;;;0.80;0.80;;;-0.70;99.90;;;;;;4962514;28;20208;-82
2022/04/16 05:02:20;;;;;;;0.70;0.70;;;-0.60;99.90;;;;;;4977040;28;20263;-83
2022/04/16 05:04:46;;;;;;;0.80;0.80;;;-0.50;99.90;;;;;;4961904;28;20228;-83
2022/04/16 05:07:12;;;;;;;0.70;0.70;;;-0.50;99.90;;;;;;4961378;28;20336;-83
2022/04/16 05:09:38;;;;;;;0.80;0.80;;;-0.40;99.90;;;;;;4978417;28;20200;-82
2022/04/16 05:12:05;;;;;;;0.63;0.63;;;-0.40;99.90;;;;;;4960471;28;20228;-82
2022/04/16 05:14:31;;;;;;;0.80;0.80;;;-0.30;99.90;;;;;;4960697;28;20200;-82
2022/04/16 05:16:57;;;;;;;0.70;0.70;;;-0.20;99.90;;;;;;4977340;28;20223;-82
2022/04/16 05:19:23;;;;;;;0.77;0.77;;;-0.10;99.90;;;;;;4977044;28;20698;-82
2022/04/16 05:21:49;;;;;;;4.25;2.47;;;-0.10;99.90;;;;;;4977172;28;20231;-83
2022/04/16 05:24:14;;;;;;;0.77;0.77;;;0.00;99.90;;;;;;4960716;28;20205;-82
2022/04/16 05:26:43;;;;;;;2.55;1.00;;;0.20;99.90;;;;;;4977345;28;20199;-82
2022/04/16 05:29:09;;;;;;;0.80;0.80;;;0.30;99.90;;;;;;4977780;28;20279;-82
2022/04/16 05:31:37;;;;;;;0.70;0.70;;;0.40;99.90;;;;;;4976018;28;20695;-82
2022/04/16 05:34:18;;;;;;;0.68;0.68;;;0.60;99.90;;;;;;4959944;28;20648;-82
2022/04/16 05:36:48;;;;;;;0.63;0.63;;;0.70;99.90;;;;;;4977482;28;20188;-83
2022/04/16 05:39:14;;;;;;;0.65;0.65;;;0.80;99.90;;;;;;4976544;28;20223;-82
2022/04/16 05:41:40;;;;;;;0.80;0.80;;;1.00;99.90;;;;;;4975466;28;20677;-82
2022/04/16 05:44:06;;;;;;;0.90;0.90;;;1.10;99.90;;;;;;4961418;28;20200;-83
2022/04/16 05:46:32;;;;;;;1.05;1.05;;;1.20;99.90;;;;;;4960961;28;20231;-83
2022/04/16 05:48:58;;;;;;;0.60;0.60;;;1.20;99.90;;;;;;4977605;28;20246;-83
2022/04/16 05:51:25;;;;;;;0.80;0.80;;;1.30;99.90;;;;;;4959863;28;20203;-83
2022/04/16 05:53:52;;;;;;;0.70;0.70;;;1.30;99.90;;;;;;4978067;28;20677;-83
2022/04/16 05:56:19;;;;;;;0.75;0.75;;;1.40;99.90;;;;;;4959792;28;20629;-82
2022/04/16 05:58:45;;;;;;;1.00;1.00;;;1.40;99.90;;;;;;4976692;28;20201;-82
2022/04/16 06:01:12;;;;;;;0.60;0.60;;;1.60;99.90;;;;;;4959538;28;20547;-83
2022/04/16 06:03:41;;;;;;;0.70;0.70;;;1.70;99.90;;;;;;4959546;28;20212;-83
2022/04/16 06:06:08;;;;;;;0.70;0.70;;;1.80;99.90;;;;;;4960153;28;20207;-83
2022/04/16 06:08:34;;;;;;;0.52;0.52;;;2.00;99.90;;;;;;4977335;28;20652;-83
2022/04/16 06:11:00;;;;;;;0.70;0.70;;;2.10;99.90;;;;;;4976600;28;20207;-83
2022/04/16 06:13:25;;;;;;;0.70;0.70;;;2.20;99.90;;;;;;4977534;28;20319;-82
2022/04/16 06:15:51;;;;;;;0.55;0.55;;;2.30;99.90;;;;;;4960188;28;20230;-83
2022/04/16 06:18:17;;;;;;;0.55;0.55;;;2.50;99.90;;;;;;4977777;28;20207;-83
2022/04/16 06:20:44;;;;;;;0.65;0.65;;;2.70;99.90;;;;;;4960683;28;20227;-82
2022/04/16 06:23:09;;;;;;;0.82;0.82;;;2.90;99.90;;;;;;4977198;28;20298;-82
2022/04/16 06:25:35;;;;;;;1.20;1.10;;;3.10;99.90;;;;;;4974304;28;20634;-84
2022/04/16 06:28:02;;;;;;;0.93;0.93;;;3.30;99.90;;;;;;4975826;28;20192;-83
2022/04/16 06:30:28;;;;;;;0.70;0.70;;;3.40;99.90;;;;;;4976720;28;20192;-83
2022/04/16 06:32:53;;;;;;;0.73;0.73;;;3.60;99.90;;;;;;4976553;28;20732;-83
2022/04/16 06:35:20;;;;;;;0.60;0.60;;;3.90;99.90;;;;;;4976243;28;20279;-82
2022/04/16 06:37:46;;;;;;;0.70;0.70;;;4.00;99.90;;;;;;4975645;28;20196;-83
2022/04/16 06:40:12;;;;;;;0.77;0.77;;;4.10;99.90;;;;;;4960364;28;20204;-83
2022/04/16 06:42:38;;;;;;;0.57;0.57;;;4.30;99.90;;;;;;4960854;28;21368;-83
2022/04/16 06:45:09;;;;;;;0.77;0.77;;;4.50;99.90;;;;;;4977666;28;20243;-84
2022/04/16 06:47:35;;;;;;;0.88;0.88;;;4.60;99.90;;;;;;4960674;28;20271;-84
2022/04/16 06:50:02;;;;;;;0.75;0.75;;;4.70;99.90;;;;;;4959897;28;20238;-86
2022/04/16 06:52:27;;;;;;;0.65;0.65;;;4.90;99.90;;;;;;4959273;28;20204;-84
2022/04/16 06:54:57;;;;;;;0.82;0.82;;;5.00;99.90;;;;;;4959613;28;20207;-83
2022/04/16 06:57:22;;;;;;;0.70;0.70;;;5.20;99.90;;;;;;4959579;28;20234;-83
2022/04/16 06:59:48;;;;;;;0.52;0.52;;;5.50;99.90;;;;;;4977479;28;20224;-84
2022/04/16 07:02:14;;;;;;;0.70;0.70;;;5.60;99.90;;;;;;4976017;28;20207;-83
2022/04/16 07:04:41;;;;;;;0.90;0.90;;;5.80;99.90;;;;;;4975771;28;20200;-84
2022/04/16 07:07:08;;;;;;;0.60;0.60;;;6.10;99.90;;;;;;4976205;28;20203;-85
2022/04/16 07:09:38;;;;;;;0.85;0.85;;;6.30;99.90;;;;;;4958931;28;20196;-85
2022/04/16 07:12:06;;;;;;;0.80;0.80;;;6.50;99.90;;;;;;4959178;28;20667;-83
2022/04/16 07:14:31;;;;;;;1.00;0.95;;;6.70;99.90;;;;;;4958963;28;20570;-84
2022/04/16 07:16:57;;;;;;;0.70;0.70;;;6.90;99.90;;;;;;4957948;28;20196;-83
2022/04/16 07:19:23;;;;;;;1.13;1.00;;;7.10;99.90;;;;;;4957279;28;20206;-82
2022/04/16 07:21:49;;;;;;;1.33;1.23;;;7.30;99.90;;;;;;4973084;28;20574;-83
2022/04/16 07:24:14;;;;;;;1.00;1.00;;;7.50;99.90;;;;;;4969669;28;20201;-85
2022/04/16 07:26:40;;;;;;;0.70;0.70;;;7.80;99.90;;;;;;4954542;28;20755;-85
2022/04/16 07:29:06;;;;;;;0.70;0.70;;;8.10;99.90;;;;;;4955702;29;20537;-86
2022/04/16 07:31:31;;;;;;;0.52;0.52;;;8.30;99.90;;;;;;4957767;28;20254;-84
2022/04/16 07:33:57;;;;;;;0.70;0.70;;;8.50;99.90;;;;;;4975290;28;20650;-85
2022/04/16 07:36:23;;;;;;;0.60;0.60;;;8.70;99.90;;;;;;4976324;28;20566;-85
2022/04/16 07:38:48;;;;;;;2.25;1.35;;;9.10;99.90;;;;;;4976388;28;20192;-84
2022/04/16 07:41:14;;;;;;;0.70;0.70;;;9.40;99.90;;;;;;4975249;28;20192;-83
2022/04/16 07:43:40;;;;;;;0.73;0.73;;;9.70;99.90;;;;;;4956988;28;20216;-83
2022/04/16 07:46:05;;;;;;;0.70;0.70;;;9.90;99.90;;;;;;4958855;28;20299;-85
2022/04/16 07:48:32;;;;;;;0.50;0.50;;;10.20;99.90;;;;;;4959896;28;20196;-84
2022/04/16 07:50:58;;;;;;;0.60;0.60;;;10.30;99.90;;;;;;4975531;28;20195;-82
2022/04/16 07:53:24;;;;;;;0.65;0.65;;;10.40;99.90;;;;;;4975466;28;20196;-84
2022/04/16 07:55:49;;;;;;;0.60;0.60;;;10.30;99.90;;;;;;4976729;28;20196;-84
2022/04/16 07:58:15;;;;;;;0.65;0.65;;;10.40;99.90;;;;;;4958284;28;20625;-84
2022/04/16 08:00:41;;;;;;;0.60;0.60;;;10.40;99.90;;;;;;4957831;28;20204;-84
2022/04/16 08:03:06;;;;;;;0.70;0.70;;;10.50;99.90;;;;;;4976723;28;20300;-85
2022/04/16 08:05:32;;;;;;;0.60;0.60;;;10.70;99.90;;;;;;4976461;28;20196;-85
2022/04/16 08:08:03;;;;;;;0.60;0.60;;;10.90;99.90;;;;;;4959745;28;20223;-87
2022/04/16 08:10:29;;;;;;;0.60;0.60;;;11.30;99.90;;;;;;4976691;28;20686;-87
2022/04/16 08:12:54;;;;;;;0.52;0.52;;;11.60;99.90;;;;;;4956065;29;20232;-87
2022/04/16 08:15:20;;;;;;;0.60;0.60;;;11.70;99.90;;;;;;4957216;29;20228;-84
2022/04/16 08:17:46;;;;;;;0.50;0.50;;;11.80;99.90;;;;;;4954213;29;20673;-87
2022/04/16 08:20:11;;;;;;;0.50;0.50;;;11.70;99.90;;;;;;4956513;29;20240;-85
2022/04/16 08:22:40;;;;;;;0.50;0.50;;;11.80;99.90;;;;;;4953045;29;20198;-88
2022/04/16 08:27:45;;;;;;;0.60;0.60;;;11.90;99.90;;;;;;4959482;28;20208;-84
2022/04/16 08:30:12;;;;;;;0.82;0.82;;;12.00;99.90;;;;;;4967854;28;20203;-84
2022/04/16 08:32:41;;;;;;;2.20;0.77;;;12.00;99.90;;;;;;4937429;29;20715;-85
2022/04/16 08:35:08;;;;;;;0.60;0.60;;;12.20;99.90;;;;;;4939643;29;20200;-84
2022/04/16 08:37:37;;;;;;;0.57;0.57;;;12.40;99.90;;;;;;4940197;29;20216;-85
2022/04/16 08:40:05;;;;;;;0.70;0.70;;;12.60;99.90;;;;;;4956808;29;20208;-84
2022/04/16 08:42:33;;;;;;;0.50;0.50;;;12.80;99.40;;;;;;4942454;29;20205;-86
2022/04/16 08:45:00;;;;;;;0.50;0.50;;;12.90;97.80;;;;;;4944525;29;20568;-86
2022/04/16 08:47:26;;;;;;;0.50;0.50;;;13.00;97.20;;;;;;4959689;29;20197;-88
2022/04/16 08:49:51;;;;;;;0.60;0.60;;;13.40;96.50;;;;;;4961541;29;20387;-85
2022/04/16 08:52:18;;;;;;;0.60;0.60;;;13.50;96.00;;;;;;4942680;29;20205;-84
2022/04/16 08:54:43;;;;;;;0.47;0.47;;;13.60;97.80;;;;;;4960227;29;20225;-87
2022/04/16 08:57:09;;;;;;;0.77;0.70;;;13.90;93.00;;;;;;4944673;29;20740;-85
2022/04/16 08:59:35;;;;;;;0.47;0.47;;;13.70;92.80;;;;;;4943034;29;20201;-84
2022/04/16 09:02:01;;;;;;;0.60;0.60;;;13.40;91.90;;;;;;4942301;29;20201;-84
2022/04/16 09:04:32;;;;;;;0.50;0.50;;;13.00;92.30;;;;;;4942098;29;20248;-84
2022/04/16 09:07:02;;;;;;;0.70;0.70;;;13.10;93.10;;;;;;4959535;29;20265;-85
2022/04/16 09:09:28;;;;;;;0.50;0.50;;;13.20;93.30;;;;;;4942646;29;20614;-85
2022/04/16 09:11:55;;;;;;;0.50;0.50;;;13.60;92.80;;;;;;4962462;28;20255;-87
2022/04/16 09:14:34;;;;;;;0.50;0.50;;;13.60;91.10;;;;;;4959893;28;20200;-86
2022/04/16 09:16:59;;;;;;;0.65;0.65;;;13.60;92.10;;;;;;4960554;28;20251;-88
2022/04/16 09:19:29;;;;;;;0.50;0.50;;;14.10;90.80;;;;;;4960020;28;20204;-87
2022/04/16 09:21:58;;;;;;;0.50;0.50;;;14.10;90.40;;;;;;4960349;28;20208;-88
2022/04/16 09:24:24;;;;;;;0.50;0.50;;;14.20;90.00;;;;;;4958025;28;20223;-83
2022/04/16 09:26:50;;;;;;;0.80;0.68;;;14.50;89.80;;;;;;4956364;29;20644;-82
2022/04/16 09:29:18;;;;;;;0.40;0.40;;;14.80;92.00;;;;;;4940300;29;20192;-83
2022/04/16 09:31:49;;;;;;;0.40;0.40;;;15.10;90.90;;;;;;4940270;29;20229;-83
2022/04/16 09:34:23;;;;;;;0.50;0.50;;;14.90;89.50;;;;;;4940933;29;20193;-82
2022/04/16 09:36:50;;;;;;;0.45;0.45;;;14.90;89.80;;;;;;4940624;29;20268;-82
2022/04/16 09:39:16;;;;;;;0.50;0.50;;;14.90;84.40;;;;;;4940743;29;20661;-80
2022/04/16 09:41:44;;;;;;;0.40;0.40;;;14.70;87.30;;;;;;4940309;29;20207;-88
2022/04/16 09:44:18;;;;;;;0.50;0.50;;;14.60;87.30;;;;;;4943114;29;20196;-88
2022/04/16 09:46:48;;;;;;;0.50;0.50;;;14.70;86.10;;;;;;4940932;29;20194;-87
2022/04/16 09:49:25;;;;;;;0.40;0.40;;;14.90;85.60;;;;;;4940924;29;20291;-80
2022/04/16 09:51:51;;;;;;;0.40;0.40;;;15.40;82.80;;;;;;4939140;29;20828;-79
2022/04/16 09:54:21;;;;;;;0.40;0.40;;;15.60;80.80;;;;;;4957266;29;20256;-79
2022/04/16 09:56:47;;;;;;;0.40;0.40;;;15.70;81.60;;;;;;4939614;29;20563;-79
2022/04/16 09:59:17;;;;;;;0.43;0.43;;;15.70;82.30;;;;;;4955192;29;20681;-80
2022/04/16 10:01:48;;;;;;;0.43;0.43;;;15.40;88.80;;;;;;4955778;29;20193;-81
2022/04/16 10:04:18;;;;;;;0.40;0.40;;;15.50;86.00;;;;;;4956754;29;20201;-84
2022/04/16 10:06:45;;;;;;;0.40;0.40;;;15.30;82.30;;;;;;4957602;29;20649;-84
2022/04/16 10:09:22;;;;;;;0.40;0.40;;;15.30;81.00;;;;;;4957786;29;20322;-83
2022/04/16 10:14:53;;;;;;;0.75;0.73;;;15.30;79.60;;;;;;4996248;28;20250;-84
2022/04/16 10:17:36;;;;;;;0.47;0.47;;;15.60;80.30;;;;;;4996255;28;20188;-84
2022/04/16 10:20:10;;;;;;;0.40;0.40;;;15.50;77.30;;;;;;4984575;28;20689;-83
2022/04/16 10:22:36;;;;;;;0.30;0.30;;;15.70;77.40;;;;;;4975214;28;20207;-83
2022/04/16 10:25:03;;;;;;;0.40;0.40;;;15.50;77.10;;;;;;4975284;28;20290;-85
2022/04/16 10:27:31;;;;;;;0.30;0.30;;;15.50;80.80;;;;;;4958700;28;20630;-85
2022/04/16 10:30:01;;;;;;;0.32;0.32;;;15.70;76.10;;;;;;4957975;28;20244;-83
2022/04/16 10:32:41;;;;;;;0.40;0.40;;;16.20;78.90;;;;;;4974765;28;20200;-84
2022/04/16 10:35:17;;;;;;;0.40;0.40;;;16.60;74.50;;;;;;4957765;28;20270;-84
2022/04/16 10:37:45;;;;;;;0.30;0.30;;;16.80;76.10;;;;;;4956963;28;20687;-84
2022/04/16 10:40:22;;;;;;;0.40;0.40;;;17.10;72.40;;;;;;4957741;28;20671;-84
2022/04/16 10:42:59;;;;;;;0.50;0.50;;;17.10;74.70;;;;;;4957341;28;20215;-83
2022/04/16 10:45:25;;;;;;;0.28;0.28;;;17.30;72.50;;;;;;4957311;28;20227;-83
2022/04/16 10:47:54;;;;;;;0.30;0.30;;;17.60;71.80;;;;;;4957421;28;20291;-83
2022/04/16 10:50:21;;;;;;;0.30;0.30;;;17.50;72.80;;;;;;4973116;28;20286;-85
2022/04/16 10:52:58;;;;;;;0.30;0.30;;;17.10;68.70;;;;;;4957275;28;20726;-82
2022/04/16 10:55:36;;;;;;;0.30;0.30;;;17.50;71.90;;;;;;4980961;28;20683;-83
2022/04/16 10:58:05;;;;;;;2.60;1.38;;;17.70;70.10;;;;;;4975824;28;20203;-83
2022/04/16 11:00:46;;;;;;;0.40;0.25;;;17.90;70.10;;;;;;4984689;28;20212;-83
2022/04/16 11:03:27;;;;;;;0.47;0.47;;;17.50;69.10;;;;;;4958133;28;20212;-84
2022/04/16 11:06:09;;;;;;;0.30;0.30;;;17.70;71.50;;;;;;4975818;28;20655;-83
2022/04/16 11:08:36;;;;;;;0.30;0.30;;;17.60;71.60;;;;;;4975228;28;20715;-83
2022/04/16 11:11:04;;;;;;;0.30;0.30;;;17.70;68.20;;;;;;4958037;28;20199;-85
2022/04/16 11:13:50;;;;;;;0.30;0.30;;;17.50;68.60;;;;;;4958066;28;20240;-82
2022/04/16 11:16:22;;;;;;;0.30;0.30;;;17.80;70.50;;;;;;4963605;28;20201;-84
2022/04/16 11:18:48;;;;;;;0.20;0.20;;;18.20;70.00;;;;;;4955639;29;20254;-85
2022/04/16 11:21:18;;;;;;;0.28;0.28;;;18.30;68.20;;;;;;4955733;29;20684;-83
2022/04/16 11:23:46;;;;;;;0.32;0.32;;;18.40;65.30;;;;;;4942900;29;20209;-84
2022/04/16 11:34:27;;;;;;;0.30;0.30;;;19.20;63.00;;;;;;4955738;29;20199;-84
2022/04/16 11:36:53;;;;;;;0.43;0.43;;;18.50;63.20;;;;;;4954741;29;20197;-86
2022/04/16 11:39:34;;;;;;;0.30;0.30;;;18.40;62.70;;;;;;4955586;29;20242;-85
2022/04/16 11:42:04;;;;;;;0.20;0.20;;;18.00;64.20;;;;;;4956001;29;20236;-84
2022/04/16 11:44:44;;;;;;;0.30;0.30;;;17.90;66.80;;;;;;4956058;29;20283;-83
2022/04/16 11:47:20;;;;;;;0.32;0.32;;;17.60;63.70;;;;;;4954306;29;20196;-83
2022/04/16 11:49:53;;;;;;;0.50;0.38;;;17.70;64.30;;;;;;4955759;29;20223;-87
2022/04/16 11:52:27;;;;;;;0.25;0.25;;;18.30;65.80;;;;;;4954452;29;20688;-80
2022/04/16 11:55:25;;;;;;;0.20;0.20;;;18.90;71.80;;;;;;4955564;29;20551;-78
2022/04/16 11:57:54;;;;;;;0.30;0.30;;;19.90;59.80;;;;;;4930126;28;20232;-78
2022/04/16 12:00:22;;;;;;;0.35;0.35;;;19.40;66.00;;;;;;4957156;28;20212;-79
2022/04/16 12:02:54;;;;;;;0.30;0.30;;;19.20;63.40;;;;;;4957459;28;20222;-79
2022/04/16 12:05:28;;;;;;;0.30;0.30;;;18.60;60.60;;;;;;4957333;28;20204;-78
2022/04/16 12:07:55;;;;;;;0.30;0.30;;;18.20;68.50;;;;;;4973264;28;20696;-79
2022/04/16 12:10:24;;;;;;;0.30;0.30;;;18.00;70.00;;;;;;4977288;28;20656;-79
2022/04/16 12:12:53;;;;;;;0.50;0.50;;;17.70;66.60;;;;;;4955645;28;20602;-78
2022/04/16 12:15:24;;;;;;;0.30;0.30;;;17.50;71.40;;;;;;4960816;28;20204;-79
2022/04/16 12:17:54;;;;;;;0.47;0.47;;;17.60;69.90;;;;;;4978386;28;20232;-79
2022/04/16 12:20:21;;;;;;;0.30;0.30;;;17.50;64.30;;;;;;4978030;28;20196;-79
2022/04/16 12:22:54;;;;;;;3.08;0.70;;;17.40;68.10;;;;;;4977776;28;20203;-80
2022/04/16 12:25:21;;;;;;;0.30;0.30;;;17.80;69.00;;;;;;4976368;28;20227;-79
2022/04/16 12:27:49;;;;;;;0.25;0.25;;;18.40;67.50;;;;;;4978304;28;20586;-79
2022/04/16 12:30:26;;;;;;;0.20;0.20;;;19.00;67.80;;;;;;4976864;28;20192;-79
2022/04/16 12:32:55;;;;;;;0.30;0.30;;;19.10;62.80;;;;;;4960794;28;20231;-79
2022/04/16 12:35:21;;;;;;;0.25;0.25;;;18.40;64.10;;;;;;4976683;28;20682;-80
2022/04/16 12:37:47;;;;;;;0.25;0.25;;;18.30;62.30;;;;;;4960610;28;20196;-80
2022/04/16 12:40:12;;;;;;;0.30;0.30;;;18.60;60.80;;;;;;4977002;28;20208;-78
2022/04/16 12:42:38;;;;;;;0.30;0.30;;;18.50;60.80;;;;;;4960581;28;20216;-78
2022/04/16 12:45:04;;;;;;;0.20;0.20;;;18.30;64.30;;;;;;4978289;28;20320;-83
2022/04/16 12:47:30;;;;;;;0.22;0.22;;;18.40;62.10;;;;;;4977021;28;20727;-84
2022/04/16 12:49:55;;;;;;;0.30;0.30;;;18.10;62.20;;;;;;4978172;28;20270;-84
2022/04/16 12:52:23;;;;;;;0.30;0.30;;;18.30;63.50;;;;;;4977857;28;20613;-84
2022/04/16 12:54:49;;;;;;;0.28;0.28;;;18.10;62.90;;;;;;4961304;28;20239;-85
2022/04/16 12:57:15;;;;;;;0.47;0.47;;;18.50;61.00;;;;;;4977018;28;20204;-84
2022/04/16 12:59:41;;;;;;;0.20;0.20;;;18.40;60.80;;;;;;4960554;28;20212;-84
2022/04/16 13:02:06;;;;;;;0.30;0.30;;;18.50;61.30;;;;;;4975682;28;20683;-84
2022/04/16 13:04:33;;;;;;;0.22;0.22;;;18.80;60.90;;;;;;4977726;28;20509;-84
2022/04/16 13:06:59;;;;;;;0.20;0.20;;;18.70;58.50;;;;;;4976560;28;20185;-84
2022/04/16 13:09:25;;;;;;;0.20;0.20;;;18.70;58.20;;;;;;4977739;28;20674;-84
2022/04/16 13:11:53;;;;;;;0.30;0.30;;;18.60;60.60;;;;;;4976272;28;20204;-84
2022/04/16 13:14:19;;;;;;;0.30;0.30;;;18.50;60.80;;;;;;4976586;28;20279;-85